VIH weather

Rolla National Airport
Rolla/Vichy, Missouri, United States

Public forecast

Using degrees Fahrenheit for public forecast. Weather courtesy of forecast.io.

METAR (pilot weather report)

Retrieved 2019/09/19 10:53 UTC (34 minutes ago):

KVIH 191053Z AUTO 16006KT 10SM CLR 21/18 A3004 RMK AO2 SLP159 T02060183

TAF (pilot weather forecast)

Closest forecast is Columbia Regional Airport, 46.6 nm (86.2 km) NNW. Retrieved 2019/09/19 06:22 UTC (5 hours ago):

TAF KCOU 190520Z 1906/2006 13006KT P6SM FEW050